Time;durP1;ratioP1;P1;durP2;ratioP2;P2;SDS_P1;SDS_P2;PMS_P1;PMS_P2;Temp;Humidity;BMP_temperature;BMP_pressure;BME280_temperature;BME280_humidity;BME280_pressure;Samples;Min_cycle;Max_cycle;Signal;HPM_P1;HPM_P2
2022/09/01 00:00:21;;;;;;;3.90;0.80;;;;;;;15.88;57.72;100885.52;104988;1274;139214;-87
2022/09/01 00:03:01;;;;;;;4.90;1.00;;;;;;;15.91;57.74;100880.94;104739;1276;94342;-88
2022/09/01 00:05:31;;;;;;;4.20;1.00;;;;;;;15.93;57.63;100875.48;104873;1276;107079;-87
2022/09/01 00:08:00;;;;;;;3.70;0.90;;;;;;;15.95;57.72;100880.19;104773;1276;138752;-87
2022/09/01 00:10:28;;;;;;;3.70;1.00;;;;;;;15.93;57.68;100876.52;104828;1276;108429;-87
2022/09/01 00:12:58;;;;;;;3.20;0.80;;;;;;;15.86;57.79;100873.22;104750;1276;138685;-88
2022/09/01 00:15:26;;;;;;;4.20;0.80;;;;;;;15.83;57.95;100873.55;105061;1276;94826;-89
2022/09/01 00:17:55;;;;;;;3.50;0.80;;;;;;;15.83;58.03;100872.45;104805;1274;138785;-88
2022/09/01 00:20:23;;;;;;;4.10;1.00;;;;;;;15.82;58.02;100874.82;104979;1275;98261;-87
2022/09/01 00:22:52;;;;;;;3.70;1.00;;;;;;;15.82;57.86;100874.84;104969;1276;109089;-88
2022/09/01 00:25:20;;;;;;;5.20;1.10;;;;;;;15.79;58.03;100876.52;104844;1274;138269;-88
2022/09/01 00:27:50;;;;;;;4.30;1.00;;;;;;;15.76;57.93;100877.55;104769;1276;94531;-87
2022/09/01 00:30:20;;;;;;;2.80;0.70;;;;;;;15.69;58.12;100877.98;104931;1276;138892;-86
2022/09/01 00:32:53;;;;;;;4.10;1.00;;;;;;;15.67;58.30;100878.07;104999;1276;99759;-87
2022/09/01 00:35:23;;;;;;;3.80;1.00;;;;;;;15.67;58.17;100880.61;105032;1276;109528;-87
2022/09/01 00:37:52;;;;;;;3.90;1.00;;;;;;;15.65;58.29;100879.23;104884;1275;138570;-87
2022/09/01 00:40:21;;;;;;;6.00;1.20;;;;;;;15.63;58.25;100880.89;104928;1276;94326;-86
2022/09/01 00:42:49;;;;;;;3.70;0.80;;;;;;;15.60;58.29;100874.96;104785;1276;138127;-87
2022/09/01 00:45:20;;;;;;;4.80;1.10;;;;;;;15.56;58.40;100874.41;104903;1276;98702;-86
2022/09/01 00:47:49;;;;;;;3.40;0.90;;;;;;;15.51;58.49;100878.02;104748;1274;107802;-87
2022/09/01 00:50:19;;;;;;;4.50;1.00;;;;;;;15.50;58.58;100874.12;104914;1276;94464;-87
2022/09/01 00:52:50;;;;;;;3.60;1.00;;;;;;;15.46;58.53;100874.24;105023;1276;94289;-88
2022/09/01 00:55:24;;;;;;;6.30;1.20;;;;;;;15.42;58.66;100872.27;104703;1275;139782;-88
2022/09/01 00:57:54;;;;;;;4.40;1.10;;;;;;;15.37;58.66;100870.45;104832;1276;99740;-88
2022/09/01 01:00:29;;;;;;;5.20;1.10;;;;;;;15.34;58.77;100871.50;104742;1276;138009;-87
2022/09/01 01:02:58;;;;;;;5.00;0.90;;;;;;;15.29;59.11;100873.30;104770;1276;94730;-88
2022/09/01 01:05:33;;;;;;;3.60;1.00;;;;;;;15.24;59.39;100872.98;104752;1275;94738;-86
2022/09/01 01:08:07;;;;;;;4.10;0.90;;;;;;;15.12;59.66;100873.73;104715;1276;138491;-87
2022/09/01 01:10:38;;;;;;;4.40;0.90;;;;;;;15.05;59.78;100876.14;104802;1275;97866;-87
2022/09/01 01:13:14;;;;;;;4.20;0.90;;;;;;;15.05;59.67;100874.52;104770;1275;138151;-87
2022/09/01 01:15:43;;;;;;;3.40;1.00;;;;;;;15.01;59.86;100874.88;104882;1276;94402;-87
2022/09/01 01:18:12;;;;;;;3.40;0.90;;;;;;;14.95;59.96;100875.28;104782;1275;138498;-87
2022/09/01 01:23:44;;;;;;;3.70;0.90;;;;;;;14.79;60.64;100878.17;104600;1276;99417;-87
2022/09/01 01:26:13;;;;;;;4.70;1.10;;;;;;;14.69;60.95;100878.88;104431;1276;137880;-87
2022/09/01 01:28:44;;;;;;;4.50;1.00;;;;;;;14.58;61.24;100874.41;104736;1276;94708;-86
2022/09/01 01:31:17;;;;;;;4.40;1.00;;;;;;;14.54;61.41;100874.74;104884;1275;138513;-87
2022/09/01 01:33:51;;;;;;;3.30;0.90;;;;;;;14.58;61.15;100874.27;105095;1275;107880;-87
2022/09/01 01:36:31;;;;;;;4.40;1.00;;;;;;;14.56;60.88;100871.63;104803;1276;138307;-86
2022/09/01 01:39:11;;;;;;;3.80;1.00;;;;;;;14.57;60.63;100868.77;104702;1276;107769;-86
2022/09/01 01:41:44;;;;;;;3.90;1.10;;;;;;;14.55;60.89;100868.45;104603;1276;94285;-87
2022/09/01 01:44:26;;;;;;;4.20;1.10;;;;;;;14.48;61.32;100870.30;104646;1274;137766;-87
2022/09/01 01:46:57;;;;;;;3.10;0.90;;;;;;;14.41;61.67;100870.58;104847;1276;107371;-87
2022/09/01 01:49:27;;;;;;;4.00;1.20;;;;;;;14.37;61.72;100869.63;104776;1274;138507;-87
2022/09/01 01:51:56;;;;;;;3.50;1.10;;;;;;;14.37;61.52;100868.53;104799;1276;108205;-88
2022/09/01 01:54:31;;;;;;;3.90;1.20;;;;;;;14.31;61.96;100868.56;104475;1274;138658;-88
2022/09/01 01:57:03;;;;;;;3.60;0.90;;;;;;;14.25;62.04;100866.29;104671;1276;94898;-87
2022/09/01 01:59:32;;;;;;;3.50;1.10;;;;;;;14.25;61.93;100866.28;104834;1276;108750;-88
2022/09/01 02:02:02;;;;;;;5.10;1.20;;;;;;;14.25;61.96;100869.50;104655;1276;138609;-88
2022/09/01 02:04:32;;;;;;;5.40;1.10;;;;;;;14.25;61.56;100866.27;104923;1275;107521;-88
2022/09/01 02:07:05;;;;;;;4.20;1.30;;;;;;;14.24;61.48;100865.77;104865;1275;138583;-88
2022/09/01 02:09:33;;;;;;;4.30;1.10;;;;;;;14.21;61.54;100865.88;105053;1274;94477;-87
2022/09/01 02:12:02;;;;;;;4.30;1.00;;;;;;;14.16;61.54;100867.83;104821;1276;139143;-88
2022/09/01 02:14:32;;;;;;;3.80;1.00;;;;;;;14.15;61.83;100866.05;104838;1276;98401;-87
2022/09/01 02:17:05;;;;;;;4.50;1.50;;;;;;;14.20;61.76;100863.95;104912;1276;108203;-87
2022/09/01 02:19:42;;;;;;;4.20;1.00;;;;;;;14.20;61.72;100863.73;104692;1276;138060;-88
2022/09/01 02:22:10;;;;;;;3.80;1.10;;;;;;;14.18;61.81;100861.52;104869;1276;94296;-88
2022/09/01 02:24:47;;;;;;;4.70;1.20;;;;;;;14.13;62.00;100857.92;104829;1274;138695;-86
2022/09/01 02:27:24;;;;;;;4.10;1.20;;;;;;;14.09;62.25;100860.39;104814;1276;97698;-87
2022/09/01 02:29:54;;;;;;;4.40;1.10;;;;;;;14.09;62.16;100863.62;104931;1275;108274;-89
2022/09/01 02:32:26;;;;;;;4.00;1.00;;;;;;;14.10;62.17;100858.39;104762;1276;138233;-89
2022/09/01 02:35:00;;;;;;;3.80;1.00;;;;;;;14.08;62.14;100854.16;105019;1276;94654;-88
2022/09/01 02:37:29;;;;;;;4.60;1.30;;;;;;;14.08;62.22;100850.45;104828;1274;138066;-87
2022/09/01 02:39:57;;;;;;;3.80;0.90;;;;;;;14.05;62.25;100851.75;104814;1276;98435;-87
2022/09/01 02:42:26;;;;;;;3.00;0.90;;;;;;;14.03;62.22;100856.29;104742;1275;139301;-87
2022/09/01 02:44:56;;;;;;;5.10;1.00;;;;;;;14.02;62.17;100857.56;104913;1276;94865;-87
2022/09/01 02:47:24;;;;;;;5.20;1.30;;;;;;;14.02;62.13;100859.70;104860;1276;94680;-87
2022/09/01 02:49:55;;;;;;;5.10;1.00;;;;;;;14.03;62.16;100860.05;104694;1276;138204;-89
2022/09/01 02:52:33;;;;;;;3.80;1.10;;;;;;;13.98;62.20;100859.84;104909;1276;98314;-88
2022/09/01 02:55:03;;;;;;;3.90;1.10;;;;;;;13.95;62.43;100862.98;104747;1276;139335;-88
2022/09/01 02:57:33;;;;;;;4.50;1.00;;;;;;;13.93;62.39;100862.16;104918;1276;94742;-88
2022/09/01 03:00:19;;;;;;;3.40;1.10;;;;;;;13.93;62.44;100862.70;104818;1276;139520;-87
2022/09/01 03:02:51;;;;;;;4.40;1.30;;;;;;;13.92;62.67;100860.59;105005;1276;108232;-87
2022/09/01 03:05:24;;;;;;;4.70;1.10;;;;;;;13.88;62.52;100860.02;104928;1276;97852;-88
2022/09/01 03:08:03;;;;;;;3.90;0.90;;;;;;;13.86;62.47;100860.41;104781;1276;139242;-89
2022/09/01 03:10:35;;;;;;;3.70;1.00;;;;;;;13.89;62.41;100857.83;104991;1276;94437;-89
2022/09/01 03:13:13;;;;;;;3.50;0.90;;;;;;;13.88;62.49;100858.58;104889;1276;139674;-88
2022/09/01 03:15:43;;;;;;;4.50;1.00;;;;;;;13.90;62.47;100858.36;104851;1276;107431;-87
2022/09/01 03:18:13;;;;;;;4.00;1.10;;;;;;;13.88;62.25;100861.08;104950;1276;140058;-86
2022/09/01 03:20:45;;;;;;;5.60;1.20;;;;;;;13.80;62.59;100864.02;104813;1276;107915;-87
2022/09/01 03:23:15;;;;;;;4.20;1.10;;;;;;;13.72;62.76;100863.17;104861;1274;95531;-88
2022/09/01 03:25:47;;;;;;;3.90;1.20;;;;;;;13.65;63.03;100865.00;104755;1276;138414;-88
2022/09/01 03:28:15;;;;;;;5.10;1.10;;;;;;;13.61;63.07;100869.08;104869;1276;107338;-87
2022/09/01 03:30:51;;;;;;;3.50;1.00;;;;;;;13.56;63.12;100873.50;104757;1275;139407;-88
2022/09/01 03:33:24;;;;;;;4.80;1.20;;;;;;;13.52;63.32;100874.51;104868;1276;107740;-89
2022/09/01 03:35:53;;;;;;;3.90;1.20;;;;;;;13.50;63.39;100871.91;104930;1276;94801;-88
2022/09/01 03:38:25;;;;;;;4.80;1.10;;;;;;;13.42;63.63;100875.55;104931;1276;139276;-88
2022/09/01 03:41:03;;;;;;;4.30;1.10;;;;;;;13.39;63.66;100875.45;104680;1276;108804;-87
2022/09/01 03:43:33;;;;;;;10.00;6.40;;;;;;;13.35;63.66;100876.96;105044;1276;138222;-85
2022/09/01 03:46:03;;;;;;;3.20;0.90;;;;;;;13.23;64.01;100875.91;105088;1276;107759;-89
2022/09/01 03:48:36;;;;;;;4.50;1.10;;;;;;;13.12;64.22;100873.54;104859;1276;139756;-88
2022/09/01 03:51:05;;;;;;;5.30;1.30;;;;;;;13.08;64.33;100871.69;104914;1276;94850;-87
2022/09/01 03:53:37;;;;;;;4.90;1.20;;;;;;;12.96;64.68;100874.36;104992;1275;107369;-86
2022/09/01 03:56:07;;;;;;;4.40;1.10;;;;;;;12.85;65.02;100870.21;104913;1276;138536;-87
2022/09/01 03:58:37;;;;;;;4.00;1.30;;;;;;;12.80;65.21;100871.27;105344;1275;109591;-86
2022/09/01 04:01:49;;;;;;;5.50;1.40;;;;;;;12.81;65.24;100866.40;104888;1276;139655;-86
2022/09/01 04:04:37;;;;;;;4.20;1.30;;;;;;;12.84;65.22;100866.67;105037;1276;94202;-87
2022/09/01 04:07:08;;;;;;;3.40;1.10;;;;;;;12.86;65.14;100868.23;105049;1276;139135;-88
2022/09/01 04:09:42;;;;;;;4.60;1.40;;;;;;;12.89;64.90;100873.30;104956;1276;98475;-86
2022/09/01 04:12:14;;;;;;;7.20;1.50;;;;;;;12.85;64.90;100873.41;104981;1276;139102;-85
2022/09/01 04:15:04;;;;;;;6.00;1.50;;;;;;;12.80;65.04;100869.64;105082;1276;94515;-87
2022/09/01 04:20:22;;;;;;;6.50;1.30;;;;;;;12.67;65.42;100874.42;104820;1276;138774;-87
2022/09/01 04:22:56;;;;;;;6.40;1.50;;;;;;;12.62;65.57;100874.24;105288;1276;99666;-87
2022/09/01 04:25:25;;;;;;;7.10;1.60;;;;;;;12.64;65.62;100869.20;104936;1276;139478;-86
2022/09/01 04:27:55;;;;;;;6.50;1.40;;;;;;;12.64;65.56;100869.55;105002;1276;94318;-86
2022/09/01 04:30:47;;;;;;;69.10;64.30;;;;;;;12.61;65.75;100874.80;104864;1275;138620;-86
2022/09/01 04:33:21;;;;;;;5.50;1.20;;;;;;;12.52;66.19;100873.41;104950;1276;106578;-87
2022/09/01 04:35:53;;;;;;;6.80;1.70;;;;;;;12.51;66.22;100876.83;105002;1276;97233;-86
2022/09/01 04:38:23;;;;;;;5.60;1.60;;;;;;;12.54;66.26;100876.77;104958;1275;138630;-89
2022/09/01 04:40:56;;;;;;;6.10;2.10;;;;;;;12.60;66.03;100874.28;105066;1276;94509;-87
2022/09/01 04:43:26;;;;;;;5.50;1.80;;;;;;;12.67;66.05;100868.76;104951;1276;137929;-87
2022/09/01 04:45:58;;;;;;;6.20;1.50;;;;;;;12.66;66.04;100871.44;104886;1276;107326;-86
2022/09/01 04:48:46;;;;;;;7.90;1.50;;;;;;;12.66;66.28;100871.27;104991;1276;138050;-88
2022/09/01 04:51:16;;;;;;;6.90;1.70;;;;;;;12.74;66.14;100874.44;105066;1276;107478;-86
2022/09/01 04:53:56;;;;;;;5.60;1.70;;;;;;;12.81;66.15;100875.50;104943;1276;95489;-87
2022/09/01 04:56:49;;;;;;;6.70;1.90;;;;;;;12.85;66.08;100878.42;104884;1276;94693;-87
2022/09/01 04:59:22;;;;;;;6.10;1.70;;;;;;;12.88;66.11;100878.50;105057;1276;108750;-87
2022/09/01 05:01:58;;;;;;;8.00;1.90;;;;;;;12.94;66.04;100875.84;104917;1276;139086;-87
2022/09/01 05:04:32;;;;;;;8.40;1.70;;;;;;;12.99;65.90;100876.77;105000;1276;106415;-88
2022/09/01 05:07:22;;;;;;;59.70;35.20;;;;;;;13.00;66.09;100872.98;104911;1275;138347;-85
2022/09/01 05:09:53;;;;;;;10.80;4.10;;;;;;;13.03;66.04;100874.15;104936;1276;94320;-89
2022/09/01 05:12:52;;;;;;;6.60;1.80;;;;;;;13.07;66.06;100871.56;105015;1276;139085;-86
2022/09/01 05:15:20;;;;;;;7.40;1.80;;;;;;;13.07;66.11;100872.08;105039;1276;99836;-87
2022/09/01 05:17:51;;;;;;;5.70;1.60;;;;;;;13.07;66.10;100872.45;105114;1274;107791;-87
2022/09/01 05:20:23;;;;;;;6.20;1.50;;;;;;;13.09;66.18;100872.20;104779;1275;139824;-86
2022/09/01 05:22:55;;;;;;;4.90;1.60;;;;;;;13.13;66.08;100875.81;104935;1276;95340;-85
2022/09/01 05:25:24;;;;;;;7.00;1.70;;;;;;;13.17;66.17;100876.42;104734;1276;138555;-86
2022/09/01 05:27:54;;;;;;;9.50;2.00;;;;;;;13.24;66.18;100874.27;104837;1277;99705;-86
2022/09/01 05:30:46;;;;;;;5.20;1.50;;;;;;;13.31;66.15;100878.50;104691;1276;139078;-86
2022/09/01 05:33:35;;;;;;;7.00;1.90;;;;;;;13.35;66.06;100877.68;104904;1275;95106;-86
2022/09/01 05:36:10;;;;;;;6.20;1.60;;;;;;;13.40;65.90;100877.92;104843;1276;94807;-87
2022/09/01 05:39:00;;;;;;;6.40;1.50;;;;;;;13.49;65.87;100878.36;104816;1275;107372;-87
2022/09/01 05:41:29;;;;;;;6.20;1.30;;;;;;;13.57;65.77;100879.55;104837;1276;97450;-86
2022/09/01 05:44:21;;;;;;;7.70;1.40;;;;;;;13.63;65.61;100877.05;104643;1276;138018;-86
2022/09/01 05:47:11;;;;;;;6.30;1.80;;;;;;;13.61;65.61;100876.38;104833;1275;94671;-85
2022/09/01 05:50:09;;;;;;;5.70;1.50;;;;;;;13.65;65.67;100878.56;104815;1276;139870;-86
2022/09/01 05:52:46;;;;;;;7.10;1.30;;;;;;;13.71;65.46;100875.90;104909;1276;108247;-86
2022/09/01 05:55:56;;;;;;;8.90;1.60;;;;;;;13.71;65.62;100877.69;104783;1276;137496;-86
2022/09/01 05:58:31;;;;;;;5.70;1.20;;;;;;;13.72;65.56;100878.02;104844;1276;107752;-87
2022/09/01 06:01:23;;;;;;;5.30;1.20;;;;;;;13.76;65.49;100882.70;104736;1276;139167;-86
2022/09/01 06:04:17;;;;;;;7.00;1.20;;;;;;;13.85;65.46;100880.09;104846;1276;94871;-86
2022/09/01 06:06:48;;;;;;;4.70;1.30;;;;;;;13.94;65.61;100877.30;104700;1276;138713;-85
2022/09/01 06:09:40;;;;;;;3.90;0.90;;;;;;;13.99;65.33;100877.14;104976;1275;98342;-88
2022/09/01 06:12:16;;;;;;;5.60;1.10;;;;;;;14.01;65.35;100875.83;104950;1276;140577;-85
2022/09/01 06:14:47;;;;;;;4.50;1.00;;;;;;;14.08;65.12;100876.11;104931;1276;94731;-88
2022/09/01 06:17:37;;;;;;;9.30;1.30;;;;;;;14.15;64.90;100875.00;104793;1276;94689;-88
2022/09/01 06:20:26;;;;;;;4.50;1.10;;;;;;;14.23;64.76;100870.81;104741;1276;138546;-85
2022/09/01 06:23:16;;;;;;;3.70;1.00;;;;;;;14.28;64.44;100874.04;104963;1274;98371;-86
2022/09/01 06:25:45;;;;;;;4.10;0.90;;;;;;;14.31;63.98;100875.88;104682;1276;138763;-86
2022/09/01 06:28:34;;;;;;;3.70;0.90;;;;;;;14.38;63.44;100877.27;104925;1276;94823;-86
2022/09/01 06:31:06;;;;;;;5.40;1.00;;;;;;;14.46;62.95;100881.80;104946;1274;137961;-87
2022/09/01 06:33:34;;;;;;;4.80;1.00;;;;;;;14.54;63.05;100879.38;105036;1274;106084;-86
2022/09/01 06:36:24;;;;;;;4.10;0.80;;;;;;;14.60;62.86;100879.36;104778;1274;139273;-86
2022/09/01 06:38:54;;;;;;;3.40;0.90;;;;;;;14.64;62.82;100885.50;104995;1274;107781;-86
2022/09/01 06:41:26;;;;;;;4.10;0.90;;;;;;;14.72;62.46;100882.39;104955;1275;94669;-88
2022/09/01 06:44:14;;;;;;;2.70;0.70;;;;;;;14.83;62.31;100884.63;104825;1274;137907;-85
2022/09/01 06:46:47;;;;;;;3.60;0.70;;;;;;;14.95;62.29;100885.48;105107;1274;105805;-87
2022/09/01 06:49:17;;;;;;;4.20;0.70;;;;;;;15.02;61.70;100885.91;104925;1274;138281;-87
2022/09/01 06:51:50;;;;;;;2.50;0.60;;;;;;;15.13;61.11;100885.00;105099;1274;109906;-87
2022/09/01 06:54:24;;;;;;;3.60;0.60;;;;;;;15.19;60.77;100881.89;104881;1275;138551;-87
2022/09/01 06:56:54;;;;;;;4.20;0.80;;;;;;;15.23;60.26;100877.66;104921;1276;94310;-87
2022/09/01 06:59:29;;;;;;;4.60;0.60;;;;;;;15.26;59.96;100878.61;105091;1274;107333;-87
2022/09/01 07:02:21;;;;;;;4.80;0.60;;;;;;;15.30;59.80;100880.08;104914;1276;139016;-87
2022/09/01 07:05:18;;;;;;;3.30;0.70;;;;;;;15.39;59.76;100885.99;104901;1274;108897;-89
2022/09/01 07:08:16;;;;;;;4.10;0.70;;;;;;;15.50;59.38;100881.79;104942;1275;139333;-87
2022/09/01 07:11:41;;;;;;;2.80;0.50;;;;;;;15.66;59.52;100881.52;104991;1275;94426;-86
2022/09/01 07:14:49;;;;;;;2.40;0.70;;;;;;;15.78;58.75;100882.83;105020;1274;107357;-87
2022/09/01 07:18:11;;;;;;;5.00;0.80;;;;;;;15.92;58.78;100881.77;104993;1274;99127;-88
2022/09/01 07:20:59;;;;;;;2.80;0.60;;;;;;;16.05;57.76;100882.13;104893;1275;108766;-87
2022/09/01 07:24:09;;;;;;;4.90;0.70;;;;;;;16.15;57.46;100881.17;105146;1274;94813;-85
2022/09/01 07:26:49;;;;;;;3.20;0.50;;;;;;;16.28;57.80;100876.69;104926;1274;138191;-88
2022/09/01 07:29:42;;;;;;;4.40;0.70;;;;;;;16.46;57.51;100877.72;105083;1274;107545;-89
2022/09/01 07:32:10;;;;;;;3.90;0.70;;;;;;;16.54;56.85;100878.27;104950;1274;138713;-85
2022/09/01 07:35:22;;;;;;;2.30;0.50;;;;;;;16.63;56.54;100878.61;105104;1274;109995;-87
2022/09/01 07:38:31;;;;;;;3.10;0.60;;;;;;;16.70;56.46;100883.45;105099;1276;139917;-87
2022/09/01 07:41:23;;;;;;;2.80;0.70;;;;;;;16.79;56.29;100879.34;105163;1273;94745;-85
2022/09/01 07:44:46;;;;;;;2.00;0.40;;;;;;;16.93;55.98;100879.27;105145;1273;137761;-86
2022/09/01 07:47:43;;;;;;;2.20;0.50;;;;;;;17.01;54.76;100883.56;105446;1274;98377;-87
2022/09/01 07:50:51;;;;;;;3.20;0.60;;;;;;;17.17;53.73;100875.48;105257;1274;107838;-86
2022/09/01 07:54:00;;;;;;;3.70;0.50;;;;;;;17.30;53.54;100876.52;105197;1275;94222;-88
2022/09/01 07:56:29;;;;;;;6.60;0.70;;;;;;;17.37;53.88;100885.18;103878;1276;1478741;-87
2022/09/01 07:59:03;;;;;;;3.40;0.60;;;;;;;17.50;53.42;100881.33;105034;1275;106577;-86
2022/09/01 08:01:51;;;;;;;4.90;0.80;;;;;;;17.66;52.98;100887.54;105024;1274;138373;-87
2022/09/01 08:04:40;;;;;;;3.80;0.50;;;;;;;17.82;53.12;100881.95;105258;1276;107712;-89
2022/09/01 08:07:12;;;;;;;3.00;0.60;;;;;;;18.01;53.38;100881.08;105434;1274;138691;-89
2022/09/01 08:09:43;;;;;;;4.30;0.70;;;;;;;18.23;52.84;100883.36;105539;1276;94503;-88
2022/09/01 08:12:17;;;;;;;3.10;0.60;;;;;;;18.39;52.70;100880.93;105647;1274;107351;-89
2022/09/01 08:14:51;;;;;;;2.80;0.40;;;;;;;18.58;52.02;100882.86;105330;1276;99818;-88
2022/09/01 08:17:42;;;;;;;4.20;0.60;;;;;;;18.58;50.84;100880.53;105259;1273;107573;-87
2022/09/01 08:20:21;;;;;;;2.90;0.50;;;;;;;18.67;50.88;100878.95;105117;1274;138331;-85
2022/09/01 08:22:56;;;;;;;2.80;0.50;;;;;;;18.78;50.59;100875.88;105163;1274;95870;-87
2022/09/01 08:25:47;;;;;;;2.60;0.50;;;;;;;18.67;49.79;100875.20;104985;1274;139285;-88
2022/09/01 08:28:37;;;;;;;3.70;0.70;;;;;;;18.58;50.30;100877.64;105326;1274;97103;-88
2022/09/01 08:31:10;;;;;;;2.20;0.40;;;;;;;18.55;50.45;100881.91;105050;1274;138241;-88
2022/09/01 08:34:04;;;;;;;2.10;0.40;;;;;;;18.61;50.20;100876.00;105456;1274;94296;-87
2022/09/01 08:36:35;;;;;;;3.70;0.60;;;;;;;18.56;50.21;100877.55;105463;1276;138183;-88
2022/09/01 08:39:04;;;;;;;5.20;0.90;;;;;;;18.42;50.95;100877.02;105559;1274;105809;-87
2022/09/01 08:41:46;;;;;;;3.50;0.70;;;;;;;18.28;51.54;100879.55;105513;1274;98438;-86
2022/09/01 08:44:34;;;;;;;2.60;0.50;;;;;;;18.17;52.08;100881.54;105165;1276;136466;-85
2022/09/01 08:47:08;;;;;;;3.70;0.70;;;;;;;18.05;52.14;100880.83;105623;1275;94483;-87
2022/09/01 08:50:14;;;;;;;3.60;0.80;;;;;;;17.97;52.41;100882.33;105677;1273;138000;-88
2022/09/01 08:53:31;;;;;;;;;;;;;;;;;;;;;
2022/09/01 08:56:12;;;;;;;4.20;0.60;;;;;;;17.87;52.92;100881.69;105233;1276;138785;-88
2022/09/01 08:58:47;;;;;;;3.40;0.60;;;;;;;17.82;53.05;100879.78;105037;1274;106764;-87
2022/09/01 09:01:33;;;;;;;4.80;0.70;;;;;;;17.79;53.22;100883.34;105509;1274;139291;-87
2022/09/01 09:04:33;;;;;;;3.50;0.60;;;;;;;17.78;52.66;100882.15;105223;1274;94649;-86
2022/09/01 09:07:26;;;;;;;4.30;0.60;;;;;;;17.96;52.70;100882.73;104871;1273;139334;-87
2022/09/01 09:10:36;;;;;;;4.10;0.70;;;;;;;18.28;52.61;100882.24;104826;1277;100304;-87
2022/09/01 09:13:42;;;;;;;3.70;0.70;;;;;;;18.72;51.88;100880.11;104555;1281;138217;-85
2022/09/01 09:16:27;;;;;;;2.70;0.40;;;;;;;19.20;49.84;100874.92;104898;1274;94741;-88
2022/09/01 09:19:01;;;;;;;3.20;0.60;;;;;;;19.64;49.08;100867.04;105153;1276;139365;-87
2022/09/01 09:21:36;;;;;;;2.10;0.40;;;;;;;20.49;47.89;100861.20;105081;1274;108907;-88
2022/09/01 09:24:10;;;;;;;2.00;0.60;;;;;;;22.53;43.95;100860.58;105352;1276;99897;-88
2022/09/01 09:26:38;;;;;;;2.30;0.50;;;;;;;24.86;40.59;100852.19;105083;1274;138795;-87
2022/09/01 09:29:21;;;;;;;2.10;0.50;;;;;;;26.90;36.07;100846.20;105403;1275;94608;-89
2022/09/01 09:32:04;;;;;;;2.10;0.40;;;;;;;28.03;33.01;100847.40;105147;1273;138942;-88
2022/09/01 09:34:53;;;;;;;1.70;0.40;;;;;;;27.31;33.75;100845.55;105433;1273;107897;-89
2022/09/01 09:37:29;;;;;;;2.10;0.40;;;;;;;26.48;34.93;100845.15;105126;1274;138137;-88
2022/09/01 09:40:08;;;;;;;2.20;0.50;;;;;;;26.14;35.45;100844.95;105122;1276;108115;-87
2022/09/01 09:42:39;;;;;;;6.90;0.70;;;;;;;26.07;33.91;100845.88;105164;1274;137883;-87
2022/09/01 09:45:32;;;;;;;1.30;0.40;;;;;;;26.27;34.35;100844.02;105203;1275;94639;-87
2022/09/01 09:48:29;;;;;;;3.50;0.80;;;;;;;27.41;32.73;100837.34;105161;1275;107588;-88
2022/09/01 09:51:16;;;;;;;2.10;0.50;;;;;;;27.65;32.18;100831.50;105053;1274;98122;-88
2022/09/01 09:53:44;;;;;;;2.30;0.40;;;;;;;27.04;32.95;100829.31;105181;1274;107944;-88
2022/09/01 09:56:21;;;;;;;1.80;0.40;;;;;;;26.46;33.21;100831.41;105195;1274;142240;-87
2022/09/01 09:58:52;;;;;;;3.20;0.50;;;;;;;26.26;33.81;100831.02;105602;1275;94312;-87
2022/09/01 10:01:22;;;;;;;1.80;0.50;;;;;;;25.84;32.61;100830.11;105279;1274;138843;-88
2022/09/01 10:03:55;;;;;;;3.00;0.50;;;;;;;25.46;33.20;100832.52;105509;1274;99151;-89
2022/09/01 10:06:36;;;;;;;3.40;0.60;;;;;;;25.38;33.17;100834.80;105361;1276;110184;-87
2022/09/01 10:09:13;;;;;;;2.10;0.40;;;;;;;25.41;33.02;100834.60;105303;1274;94752;-88
2022/09/01 10:11:50;;;;;;;2.80;0.50;;;;;;;26.33;31.65;100834.36;105444;1274;94626;-85
2022/09/01 10:14:22;;;;;;;3.70;0.60;;;;;;;26.50;31.72;100835.35;105161;1274;138922;-87
2022/09/01 10:17:16;;;;;;;3.10;0.60;;;;;;;28.36;29.47;100833.00;105227;1275;98776;-88
2022/09/01 10:20:04;;;;;;;1.10;0.50;;;;;;;29.91;27.23;100833.11;105100;1275;138391;-87
2022/09/01 10:22:35;;;;;;;3.00;0.40;;;;;;;31.55;25.62;100828.70;105145;1274;94630;-88
2022/09/01 10:25:16;;;;;;;3.30;0.40;;;;;;;33.01;24.80;100827.51;104945;1274;138674;-88
2022/09/01 10:27:50;;;;;;;3.90;0.60;;;;;;;34.10;22.82;100822.60;105149;1275;107487;-87
2022/09/01 10:30:44;;;;;;;1.60;0.30;;;;;;;33.26;23.32;100830.35;105042;1274;139838;-88
2022/09/01 10:33:18;;;;;;;1.80;0.30;;;;;;;31.45;24.15;100834.52;105339;1275;109872;-89
2022/09/01 10:35:52;;;;;;;2.10;0.30;;;;;;;30.44;24.51;100839.23;105260;1274;94740;-86
2022/09/01 10:38:26;;;;;;;3.20;0.50;;;;;;;31.26;24.27;100837.83;105151;1276;137560;-88
2022/09/01 10:41:07;;;;;;;1.90;0.30;;;;;;;32.67;22.42;100837.98;105167;1274;107308;-90
2022/09/01 10:43:47;;;;;;;1.20;0.30;;;;;;;33.74;20.49;100834.92;105171;1277;139649;-90
2022/09/01 10:46:21;;;;;;;1.80;0.20;;;;;;;34.38;19.44;100832.51;105491;1274;108744;-89
2022/09/01 10:48:57;;;;;;;1.60;0.20;;;;;;;34.98;19.29;100834.66;105225;1274;139534;-90
2022/09/01 10:51:42;;;;;;;2.00;0.30;;;;;;;34.48;19.71;100826.85;105221;1274;94411;-85
2022/09/01 10:54:47;;;;;;;1.70;0.30;;;;;;;32.73;21.88;100832.04;105181;1274;108911;-85
2022/09/01 10:57:34;;;;;;;3.20;0.50;;;;;;;31.32;22.87;100828.88;105405;1276;99982;-88
2022/09/01 11:00:18;;;;;;;1.40;0.30;;;;;;;30.12;24.18;100825.67;105275;1274;108447;-89
2022/09/01 11:03:30;;;;;;;2.00;0.40;;;;;;;29.23;25.45;100824.33;105176;1274;94433;-87
2022/09/01 11:06:30;;;;;;;1.20;0.30;;;;;;;28.25;25.70;100830.17;105342;1274;94322;-85
2022/09/01 11:09:27;;;;;;;1.10;0.30;;;;;;;27.18;26.44;100835.39;105308;1274;107317;-87
2022/09/01 11:12:39;;;;;;;2.00;0.50;;;;;;;26.48;26.75;100831.80;105246;1274;98823;-85
2022/09/01 11:15:35;;;;;;;1.50;0.30;;;;;;;25.62;27.88;100830.66;105248;1274;108326;-86
2022/09/01 11:18:30;;;;;;;1.60;0.30;;;;;;;24.97;29.09;100827.73;105067;1274;94206;-86
2022/09/01 11:21:24;;;;;;;2.80;0.40;;;;;;;24.71;30.25;100826.35;105171;1274;94236;-86
2022/09/01 11:24:49;;;;;;;3.90;0.50;;;;;;;24.45;29.90;100832.70;105086;1275;107925;-85
2022/09/01 11:27:47;;;;;;;1.60;0.30;;;;;;;23.90;31.12;100829.46;104745;1281;98201;-85
2022/09/01 11:30:32;;;;;;;3.20;0.60;;;;;;;23.60;32.03;100830.40;105192;1274;107625;-87
2022/09/01 11:33:15;;;;;;;1.40;0.30;;;;;;;23.40;32.75;100826.06;105030;1277;94454;-88
2022/09/01 11:35:46;;;;;;;1.80;0.30;;;;;;;23.29;33.67;100824.88;105060;1274;95490;-86
2022/09/01 11:38:18;;;;;;;1.50;0.30;;;;;;;23.11;33.09;100829.27;105179;1274;138527;-86
2022/09/01 11:40:54;;;;;;;2.10;0.50;;;;;;;22.82;32.86;100831.30;105097;1274;100576;-86
2022/09/01 11:43:25;;;;;;;1.70;0.40;;;;;;;22.52;32.68;100833.41;105155;1274;138507;-85
2022/09/01 11:46:34;;;;;;;1.60;0.40;;;;;;;22.32;32.99;100830.21;105301;1274;94345;-88
2022/09/01 11:49:42;;;;;;;1.70;0.30;;;;;;;22.18;33.56;100827.75;105087;1275;137929;-86
2022/09/01 11:52:16;;;;;;;2.90;0.40;;;;;;;22.07;33.83;100826.09;105397;1274;109928;-87
2022/09/01 11:55:04;;;;;;;3.00;0.40;;;;;;;21.85;34.18;100829.77;105118;1274;139423;-85
2022/09/01 11:57:36;;;;;;;2.40;0.40;;;;;;;21.62;34.37;100830.19;105327;1274;107943;-86
2022/09/01 12:00:27;;;;;;;3.10;0.50;;;;;;;21.51;35.10;100830.90;105210;1276;94322;-86
2022/09/01 12:03:24;;;;;;;1.30;0.40;;;;;;;21.51;35.65;100835.23;105284;1274;94404;-87
2022/09/01 12:06:24;;;;;;;2.70;0.50;;;;;;;21.56;35.89;100827.70;105317;1274;105112;-87
2022/09/01 12:09:04;;;;;;;3.20;0.60;;;;;;;21.61;36.08;100831.34;105171;1274;139136;-87
2022/09/01 12:11:52;;;;;;;6.70;0.60;;;;;;;21.54;35.39;100834.65;105294;1274;110042;-88
2022/09/01 12:14:58;;;;;;;3.80;0.50;;;;;;;21.37;35.28;100836.09;105235;1274;138084;-85
2022/09/01 12:17:34;;;;;;;3.60;0.50;;;;;;;21.23;35.57;100834.52;105244;1275;94028;-88